sensor_id;sensor_type;location;lat;lon;timestamp;pressure;altitude;pressure_sealevel;temperature;humidity
72096;BME280;59968;51.084;16.748;2022-09-09T00:04:54;99860.41;;;16.51;83.32
72096;BME280;59968;51.084;16.748;2022-09-09T00:07:49;99862.33;;;16.50;83.45
72096;BME280;59968;51.084;16.748;2022-09-09T00:10:28;99859.89;;;16.47;83.35
72096;BME280;59968;51.084;16.748;2022-09-09T00:13:29;99857.14;;;16.43;83.47
72096;BME280;59968;51.084;16.748;2022-09-09T00:21:18;99858.14;;;16.33;83.31
72096;BME280;59968;51.084;16.748;2022-09-09T00:23:50;99861.23;;;16.34;83.49
72096;BME280;59968;51.084;16.748;2022-09-09T00:26:45;99860.69;;;16.33;83.36
72096;BME280;59968;51.084;16.748;2022-09-09T00:31:57;99862.02;;;16.31;83.55
72096;BME280;59968;51.084;16.748;2022-09-09T00:34:28;99859.86;;;16.30;83.18
72096;BME280;59968;51.084;16.748;2022-09-09T00:36:56;99856.50;;;16.29;83.18
72096;BME280;59968;51.084;16.748;2022-09-09T00:39:41;99854.59;;;16.28;83.14
72096;BME280;59968;51.084;16.748;2022-09-09T00:48:01;99859.56;;;16.18;82.96
72096;BME280;59968;51.084;16.748;2022-09-09T00:53:27;99860.55;;;16.11;82.93
72096;BME280;59968;51.084;16.748;2022-09-09T00:56:12;99863.53;;;16.08;82.67
72096;BME280;59968;51.084;16.748;2022-09-09T00:58:43;99862.49;;;16.06;82.47
72096;BME280;59968;51.084;16.748;2022-09-09T01:01:17;99865.25;;;16.03;82.67
72096;BME280;59968;51.084;16.748;2022-09-09T01:03:53;99866.40;;;15.99;82.70
72096;BME280;59968;51.084;16.748;2022-09-09T01:06:33;99864.39;;;15.95;82.80
72096;BME280;59968;51.084;16.748;2022-09-09T01:09:13;99865.97;;;15.90;82.86
72096;BME280;59968;51.084;16.748;2022-09-09T01:17:19;99864.22;;;15.80;83.38
72096;BME280;59968;51.084;16.748;2022-09-09T01:22:50;99866.73;;;15.79;83.37
72096;BME280;59968;51.084;16.748;2022-09-09T01:28:21;99871.58;;;15.78;83.51
72096;BME280;59968;51.084;16.748;2022-09-09T01:30:51;99875.75;;;15.77;83.66
72096;BME280;59968;51.084;16.748;2022-09-09T01:33:22;99876.27;;;15.77;83.43
72096;BME280;59968;51.084;16.748;2022-09-09T01:35:58;99879.98;;;15.76;83.21
72096;BME280;59968;51.084;16.748;2022-09-09T01:38:32;99879.80;;;15.75;83.04
72096;BME280;59968;51.084;16.748;2022-09-09T01:41:01;99877.76;;;15.72;83.45
72096;BME280;59968;51.084;16.748;2022-09-09T01:43:38;99879.69;;;15.69;83.62
72096;BME280;59968;51.084;16.748;2022-09-09T01:46:06;99876.44;;;15.67;83.83
72096;BME280;59968;51.084;16.748;2022-09-09T01:48:36;99882.42;;;15.68;83.67
72096;BME280;59968;51.084;16.748;2022-09-09T01:51:08;99887.35;;;15.66;83.53
72096;BME280;59968;51.084;16.748;2022-09-09T01:53:39;99886.02;;;15.64;83.60
72096;BME280;59968;51.084;16.748;2022-09-09T01:56:21;99887.48;;;15.63;83.45
72096;BME280;59968;51.084;16.748;2022-09-09T01:59:04;99891.18;;;15.61;83.79
72096;BME280;59968;51.084;16.748;2022-09-09T02:04:49;99891.33;;;15.58;84.01
72096;BME280;59968;51.084;16.748;2022-09-09T02:07:40;99893.74;;;15.56;83.99
72096;BME280;59968;51.084;16.748;2022-09-09T02:10:30;99894.63;;;15.56;83.96
72096;BME280;59968;51.084;16.748;2022-09-09T02:13:11;99899.89;;;15.54;84.04
72096;BME280;59968;51.084;16.748;2022-09-09T02:16:03;99898.15;;;15.52;83.73
72096;BME280;59968;51.084;16.748;2022-09-09T02:18:36;99902.52;;;15.51;83.67
72096;BME280;59968;51.084;16.748;2022-09-09T02:21:06;99900.73;;;15.50;83.82
72096;BME280;59968;51.084;16.748;2022-09-09T02:23:34;99901.10;;;15.51;83.78
72096;BME280;59968;51.084;16.748;2022-09-09T02:26:03;99899.81;;;15.51;83.92
72096;BME280;59968;51.084;16.748;2022-09-09T02:28:32;99902.23;;;15.52;83.61
72096;BME280;59968;51.084;16.748;2022-09-09T02:31:01;99901.77;;;15.50;83.54
72096;BME280;59968;51.084;16.748;2022-09-09T02:33:39;99901.48;;;15.46;83.64
72096;BME280;59968;51.084;16.748;2022-09-09T02:36:10;99904.02;;;15.41;83.51
72096;BME280;59968;51.084;16.748;2022-09-09T02:38:45;99905.95;;;15.36;83.50
72096;BME280;59968;51.084;16.748;2022-09-09T02:41:13;99904.18;;;15.34;83.43
72096;BME280;59968;51.084;16.748;2022-09-09T02:43:40;99905.86;;;15.32;83.39
72096;BME280;59968;51.084;16.748;2022-09-09T02:46:36;99906.73;;;15.31;83.62
72096;BME280;59968;51.084;16.748;2022-09-09T02:49:44;99905.34;;;15.28;83.80
72096;BME280;59968;51.084;16.748;2022-09-09T02:52:33;99906.55;;;15.23;84.02
72096;BME280;59968;51.084;16.748;2022-09-09T02:55:13;99909.91;;;15.19;84.13
72096;BME280;59968;51.084;16.748;2022-09-09T02:57:47;99907.83;;;15.17;84.19
72096;BME280;59968;51.084;16.748;2022-09-09T03:00:15;99909.72;;;15.15;84.07
72096;BME280;59968;51.084;16.748;2022-09-09T03:02:42;99910.65;;;15.14;83.95
72096;BME280;59968;51.084;16.748;2022-09-09T03:05:09;99912.87;;;15.11;84.20
72096;BME280;59968;51.084;16.748;2022-09-09T03:07:36;99913.02;;;15.08;84.34
72096;BME280;59968;51.084;16.748;2022-09-09T03:10:04;99917.98;;;15.06;84.22
72096;BME280;59968;51.084;16.748;2022-09-09T03:12:31;99919.51;;;15.07;84.48
72096;BME280;59968;51.084;16.748;2022-09-09T03:15:00;99920.44;;;15.04;84.67
72096;BME280;59968;51.084;16.748;2022-09-09T03:17:27;99915.76;;;14.96;84.55
72096;BME280;59968;51.084;16.748;2022-09-09T03:19:55;99925.86;;;14.99;84.83
72096;BME280;59968;51.084;16.748;2022-09-09T03:22:22;99923.42;;;14.98;84.56
72096;BME280;59968;51.084;16.748;2022-09-09T03:24:50;99925.90;;;14.96;84.88
72096;BME280;59968;51.084;16.748;2022-09-09T03:27:18;99923.56;;;14.95;84.85
72096;BME280;59968;51.084;16.748;2022-09-09T03:29:46;99923.70;;;14.91;85.01
72096;BME280;59968;51.084;16.748;2022-09-09T03:32:16;99923.05;;;14.86;85.12
72096;BME280;59968;51.084;16.748;2022-09-09T03:34:44;99924.02;;;14.82;85.39
72096;BME280;59968;51.084;16.748;2022-09-09T03:37:12;99923.71;;;14.78;85.24
72096;BME280;59968;51.084;16.748;2022-09-09T03:39:39;99926.77;;;14.77;85.48
72096;BME280;59968;51.084;16.748;2022-09-09T03:42:07;99927.10;;;14.78;85.51
72096;BME280;59968;51.084;16.748;2022-09-09T03:44:34;99934.20;;;14.79;85.46
72096;BME280;59968;51.084;16.748;2022-09-09T03:47:02;99933.80;;;14.79;85.49
72096;BME280;59968;51.084;16.748;2022-09-09T03:49:28;99936.94;;;14.79;85.48
72096;BME280;59968;51.084;16.748;2022-09-09T03:51:56;99932.45;;;14.81;85.42
72096;BME280;59968;51.084;16.748;2022-09-09T03:54:25;99932.35;;;14.83;85.18
72096;BME280;59968;51.084;16.748;2022-09-09T03:56:51;99932.77;;;14.84;85.21
72096;BME280;59968;51.084;16.748;2022-09-09T03:59:19;99937.23;;;14.84;85.05
72096;BME280;59968;51.084;16.748;2022-09-09T04:01:48;99935.55;;;14.84;84.83
72096;BME280;59968;51.084;16.748;2022-09-09T04:04:15;99935.66;;;14.82;84.89
72096;BME280;59968;51.084;16.748;2022-09-09T04:06:46;99936.63;;;14.79;85.02
72096;BME280;59968;51.084;16.748;2022-09-09T04:09:14;99940.23;;;14.76;85.02
72096;BME280;59968;51.084;16.748;2022-09-09T04:11:42;99942.12;;;14.71;84.93
72096;BME280;59968;51.084;16.748;2022-09-09T04:14:08;99939.33;;;14.68;85.15
72096;BME280;59968;51.084;16.748;2022-09-09T04:16:35;99938.58;;;14.65;85.08
72096;BME280;59968;51.084;16.748;2022-09-09T04:19:04;99946.50;;;14.61;85.15
72096;BME280;59968;51.084;16.748;2022-09-09T04:21:35;99941.17;;;14.57;85.13
72096;BME280;59968;51.084;16.748;2022-09-09T04:24:02;99944.10;;;14.58;85.21
72096;BME280;59968;51.084;16.748;2022-09-09T04:26:28;99942.66;;;14.60;85.22
72096;BME280;59968;51.084;16.748;2022-09-09T04:28:55;99943.44;;;14.61;85.33
72096;BME280;59968;51.084;16.748;2022-09-09T04:31:22;99943.15;;;14.62;85.27
72096;BME280;59968;51.084;16.748;2022-09-09T04:33:53;99942.38;;;14.62;85.30
72096;BME280;59968;51.084;16.748;2022-09-09T04:36:20;99947.73;;;14.63;85.41
72096;BME280;59968;51.084;16.748;2022-09-09T04:38:48;99946.21;;;14.64;85.43
72096;BME280;59968;51.084;16.748;2022-09-09T04:41:17;99944.26;;;14.63;85.29
72096;BME280;59968;51.084;16.748;2022-09-09T04:43:45;99945.48;;;14.62;85.33
72096;BME280;59968;51.084;16.748;2022-09-09T04:46:13;99949.19;;;14.61;85.01
72096;BME280;59968;51.084;16.748;2022-09-09T04:48:40;99948.10;;;14.64;85.25
72096;BME280;59968;51.084;16.748;2022-09-09T04:51:10;99948.75;;;14.67;85.38
72096;BME280;59968;51.084;16.748;2022-09-09T04:53:38;99950.64;;;14.71;85.43
72096;BME280;59968;51.084;16.748;2022-09-09T04:56:10;99956.31;;;14.75;85.30
72096;BME280;59968;51.084;16.748;2022-09-09T04:58:42;99956.13;;;14.78;85.10
72096;BME280;59968;51.084;16.748;2022-09-09T05:01:20;99961.33;;;14.86;85.02
72096;BME280;59968;51.084;16.748;2022-09-09T05:03:50;99959.10;;;14.93;85.00
72096;BME280;59968;51.084;16.748;2022-09-09T05:06:22;99961.13;;;14.97;84.97
72096;BME280;59968;51.084;16.748;2022-09-09T05:08:54;99966.79;;;14.98;85.17
72096;BME280;59968;51.084;16.748;2022-09-09T05:11:27;99965.83;;;15.00;85.44
72096;BME280;59968;51.084;16.748;2022-09-09T05:14:10;99968.02;;;15.04;85.65
72096;BME280;59968;51.084;16.748;2022-09-09T05:16:39;99969.86;;;15.09;85.69
72096;BME280;59968;51.084;16.748;2022-09-09T05:19:07;99970.16;;;15.15;85.77
72096;BME280;59968;51.084;16.748;2022-09-09T05:21:44;99975.14;;;15.22;85.62
72096;BME280;59968;51.084;16.748;2022-09-09T05:24:12;99975.61;;;15.29;85.54
72096;BME280;59968;51.084;16.748;2022-09-09T05:26:39;99977.16;;;15.35;85.63
72096;BME280;59968;51.084;16.748;2022-09-09T05:29:07;99976.81;;;15.41;85.74
72096;BME280;59968;51.084;16.748;2022-09-09T05:31:35;99982.64;;;15.48;85.78
72096;BME280;59968;51.084;16.748;2022-09-09T05:34:08;99981.81;;;15.55;85.91
72096;BME280;59968;51.084;16.748;2022-09-09T05:36:36;99984.53;;;15.65;85.83
72096;BME280;59968;51.084;16.748;2022-09-09T05:39:04;99982.73;;;15.76;85.92
72096;BME280;59968;51.084;16.748;2022-09-09T05:41:31;99980.14;;;15.87;85.78
72096;BME280;59968;51.084;16.748;2022-09-09T05:44:00;99976.98;;;15.96;85.65
72096;BME280;59968;51.084;16.748;2022-09-09T05:46:28;99977.94;;;16.05;85.78
72096;BME280;59968;51.084;16.748;2022-09-09T05:48:55;99981.71;;;16.11;85.66
72096;BME280;59968;51.084;16.748;2022-09-09T05:51:29;99981.86;;;16.16;86.12
72096;BME280;59968;51.084;16.748;2022-09-09T05:54:03;99979.80;;;16.21;86.26
72096;BME280;59968;51.084;16.748;2022-09-09T05:56:32;99983.14;;;16.28;86.08
72096;BME280;59968;51.084;16.748;2022-09-09T05:58:59;99979.25;;;16.33;86.03
72096;BME280;59968;51.084;16.748;2022-09-09T06:01:30;99977.47;;;16.39;86.34
72096;BME280;59968;51.084;16.748;2022-09-09T06:03:58;99978.21;;;16.45;86.18
72096;BME280;59968;51.084;16.748;2022-09-09T06:06:27;99976.62;;;16.51;86.55
72096;BME280;59968;51.084;16.748;2022-09-09T06:08:57;99971.77;;;16.61;86.70
72096;BME280;59968;51.084;16.748;2022-09-09T06:11:30;99970.23;;;16.71;86.72
72096;BME280;59968;51.084;16.748;2022-09-09T06:13:58;99970.89;;;16.83;86.62
72096;BME280;59968;51.084;16.748;2022-09-09T06:16:27;99971.30;;;16.95;86.45
72096;BME280;59968;51.084;16.748;2022-09-09T06:18:56;99972.04;;;17.06;86.35
72096;BME280;59968;51.084;16.748;2022-09-09T06:21:34;99975.62;;;17.17;86.38
72096;BME280;59968;51.084;16.748;2022-09-09T06:24:05;99985.06;;;17.31;86.49
72096;BME280;59968;51.084;16.748;2022-09-09T06:26:34;99983.27;;;17.45;86.09
72096;BME280;59968;51.084;16.748;2022-09-09T06:29:03;99986.41;;;17.61;85.74
72096;BME280;59968;51.084;16.748;2022-09-09T06:31:33;99986.25;;;17.73;84.78
72096;BME280;59968;51.084;16.748;2022-09-09T06:34:07;99980.41;;;17.81;84.35
72096;BME280;59968;51.084;16.748;2022-09-09T06:36:37;99980.46;;;17.86;84.10
72096;BME280;59968;51.084;16.748;2022-09-09T06:39:06;99980.41;;;17.93;83.99
72096;BME280;59968;51.084;16.748;2022-09-09T06:41:41;99984.15;;;18.07;84.39
72096;BME280;59968;51.084;16.748;2022-09-09T06:44:18;99980.89;;;18.21;84.47
72096;BME280;59968;51.084;16.748;2022-09-09T06:46:46;99976.80;;;18.31;83.33
72096;BME280;59968;51.084;16.748;2022-09-09T06:49:15;99982.34;;;18.40;82.70
72096;BME280;59968;51.084;16.748;2022-09-09T06:51:43;99983.98;;;18.49;82.35
72096;BME280;59968;51.084;16.748;2022-09-09T06:54:13;99985.94;;;18.56;82.00
72096;BME280;59968;51.084;16.748;2022-09-09T06:56:43;99986.06;;;18.61;81.80
72096;BME280;59968;51.084;16.748;2022-09-09T06:59:19;99994.19;;;18.72;82.08
72096;BME280;59968;51.084;16.748;2022-09-09T07:01:49;99991.16;;;18.85;82.34
72096;BME280;59968;51.084;16.748;2022-09-09T07:04:22;99994.95;;;19.00;82.18
72096;BME280;59968;51.084;16.748;2022-09-09T07:06:49;99993.62;;;19.04;80.66
72096;BME280;59968;51.084;16.748;2022-09-09T07:09:20;99999.18;;;19.02;80.43
72096;BME280;59968;51.084;16.748;2022-09-09T07:11:51;99996.38;;;19.00;80.33
72096;BME280;59968;51.084;16.748;2022-09-09T07:14:21;99997.42;;;18.99;80.09
72096;BME280;59968;51.084;16.748;2022-09-09T07:16:55;99995.46;;;18.98;80.07
72096;BME280;59968;51.084;16.748;2022-09-09T07:19:27;99993.80;;;19.00;80.44
72096;BME280;59968;51.084;16.748;2022-09-09T07:21:55;99993.36;;;19.06;80.65
72096;BME280;59968;51.084;16.748;2022-09-09T07:24:23;99993.42;;;19.14;80.38
72096;BME280;59968;51.084;16.748;2022-09-09T07:26:51;99991.91;;;19.29;80.41
72096;BME280;59968;51.084;16.748;2022-09-09T07:29:21;100000.96;;;19.42;80.06
72096;BME280;59968;51.084;16.748;2022-09-09T07:31:51;100000.62;;;19.54;79.44
72096;BME280;59968;51.084;16.748;2022-09-09T07:34:23;99999.40;;;19.62;78.73
72096;BME280;59968;51.084;16.748;2022-09-09T07:36:50;99998.61;;;19.64;78.53
72096;BME280;59968;51.084;16.748;2022-09-09T07:39:17;99998.54;;;19.68;78.13
72096;BME280;59968;51.084;16.748;2022-09-09T07:41:49;100006.76;;;19.72;78.13
72096;BME280;59968;51.084;16.748;2022-09-09T07:44:20;100005.92;;;19.82;77.94
72096;BME280;59968;51.084;16.748;2022-09-09T07:46:50;100010.27;;;20.03;78.52
72096;BME280;59968;51.084;16.748;2022-09-09T07:49:22;100011.43;;;20.25;77.70
72096;BME280;59968;51.084;16.748;2022-09-09T07:51:58;100009.52;;;20.39;77.50
72096;BME280;59968;51.084;16.748;2022-09-09T07:54:26;100009.71;;;20.51;76.82
72096;BME280;59968;51.084;16.748;2022-09-09T07:56:54;100005.79;;;20.68;76.06
72096;BME280;59968;51.084;16.748;2022-09-09T07:59:23;100002.44;;;20.88;75.62
72096;BME280;59968;51.084;16.748;2022-09-09T08:01:52;100010.04;;;21.10;75.43
72096;BME280;59968;51.084;16.748;2022-09-09T08:04:25;100008.36;;;21.25;74.14
72096;BME280;59968;51.084;16.748;2022-09-09T08:06:58;100014.23;;;21.46;73.15
72096;BME280;59968;51.084;16.748;2022-09-09T08:09:27;100014.20;;;21.57;72.38
72096;BME280;59968;51.084;16.748;2022-09-09T08:12:07;100015.75;;;21.68;72.51
72096;BME280;59968;51.084;16.748;2022-09-09T08:14:35;100006.76;;;21.79;72.14
72096;BME280;59968;51.084;16.748;2022-09-09T08:17:03;100007.11;;;21.93;71.55
72096;BME280;59968;51.084;16.748;2022-09-09T08:19:31;100007.96;;;22.06;70.93
72096;BME280;59968;51.084;16.748;2022-09-09T08:22:02;100009.45;;;22.12;70.32
72096;BME280;59968;51.084;16.748;2022-09-09T08:24:31;100008.78;;;22.13;70.39
72096;BME280;59968;51.084;16.748;2022-09-09T08:26:59;100007.27;;;22.19;69.33
72096;BME280;59968;51.084;16.748;2022-09-09T08:29:27;100006.77;;;22.23;69.47
72096;BME280;59968;51.084;16.748;2022-09-09T08:31:57;100003.61;;;22.28;68.54
72096;BME280;59968;51.084;16.748;2022-09-09T08:34:25;100003.31;;;22.37;68.37
72096;BME280;59968;51.084;16.748;2022-09-09T08:36:54;100003.52;;;22.46;68.42
72096;BME280;59968;51.084;16.748;2022-09-09T08:39:26;100007.94;;;22.48;67.45
72096;BME280;59968;51.084;16.748;2022-09-09T08:42:33;100010.98;;;22.53;65.86
72096;BME280;59968;51.084;16.748;2022-09-09T08:45:19;100012.87;;;22.56;64.67
72096;BME280;59968;51.084;16.748;2022-09-09T08:50:36;100021.00;;;22.55;63.88
72096;BME280;59968;51.084;16.748;2022-09-09T08:53:20;100024.95;;;22.58;63.22
72096;BME280;59968;51.084;16.748;2022-09-09T08:55:59;100026.86;;;22.55;62.58
72096;BME280;59968;51.084;16.748;2022-09-09T08:58:49;100027.48;;;22.58;62.34
72096;BME280;59968;51.084;16.748;2022-09-09T09:01:41;100028.48;;;22.64;62.25
72096;BME280;59968;51.084;16.748;2022-09-09T09:04:45;100029.20;;;22.76;62.88
72096;BME280;59968;51.084;16.748;2022-09-09T09:07:46;100034.11;;;22.90;63.12
72096;BME280;59968;51.084;16.748;2022-09-09T09:13:27;100017.89;;;23.09;61.85
72096;BME280;59968;51.084;16.748;2022-09-09T09:16:52;100003.92;;;23.09;62.08
72096;BME280;59968;51.084;16.748;2022-09-09T09:19:17;100023.33;;;23.23;60.72
72096;BME280;59968;51.084;16.748;2022-09-09T09:27:16;100018.89;;;23.33;62.08
72096;BME280;59968;51.084;16.748;2022-09-09T09:29:50;100020.52;;;23.43;61.90
72096;BME280;59968;51.084;16.748;2022-09-09T09:32:44;100023.17;;;23.52;60.69
72096;BME280;59968;51.084;16.748;2022-09-09T09:35:17;100022.27;;;23.57;59.56
72096;BME280;59968;51.084;16.748;2022-09-09T09:37:47;100021.95;;;23.61;59.56
72096;BME280;59968;51.084;16.748;2022-09-09T09:43:22;100016.31;;;23.70;60.29
72096;BME280;59968;51.084;16.748;2022-09-09T09:45:52;100016.21;;;23.79;59.85
72096;BME280;59968;51.084;16.748;2022-09-09T09:48:39;100019.74;;;23.85;59.72
72096;BME280;59968;51.084;16.748;2022-09-09T09:51:12;100024.53;;;23.83;59.54
72096;BME280;59968;51.084;16.748;2022-09-09T09:53:43;100022.41;;;23.84;58.49
72096;BME280;59968;51.084;16.748;2022-09-09T09:56:14;100025.69;;;23.84;58.18
72096;BME280;59968;51.084;16.748;2022-09-09T10:01:28;100028.63;;;23.77;57.71
72096;BME280;59968;51.084;16.748;2022-09-09T10:04:19;100025.66;;;23.77;58.21
72096;BME280;59968;51.084;16.748;2022-09-09T10:06:48;100022.61;;;23.81;58.09
72096;BME280;59968;51.084;16.748;2022-09-09T10:09:22;100025.16;;;23.84;57.58
72096;BME280;59968;51.084;16.748;2022-09-09T10:20:45;100010.52;;;24.37;55.27
72096;BME280;59968;51.084;16.748;2022-09-09T10:29:17;100003.51;;;24.56;54.42
72096;BME280;59968;51.084;16.748;2022-09-09T10:37:44;100002.35;;;24.50;53.66
72096;BME280;59968;51.084;16.748;2022-09-09T10:40:38;100001.89;;;24.44;53.27
72096;BME280;59968;51.084;16.748;2022-09-09T10:48:31;100005.91;;;24.52;54.71
72096;BME280;59968;51.084;16.748;2022-09-09T10:56:16;100002.36;;;24.62;52.76
72096;BME280;59968;51.084;16.748;2022-09-09T10:59:00;99998.82;;;24.61;52.37
72096;BME280;59968;51.084;16.748;2022-09-09T11:01:35;99994.16;;;24.64;52.23
72096;BME280;59968;51.084;16.748;2022-09-09T11:04:12;99995.42;;;24.65;51.81
72096;BME280;59968;51.084;16.748;2022-09-09T11:06:47;99995.36;;;24.63;52.07
72096;BME280;59968;51.084;16.748;2022-09-09T11:09:22;100000.37;;;24.61;52.97
72096;BME280;59968;51.084;16.748;2022-09-09T11:11:58;100000.55;;;24.60;52.44
72096;BME280;59968;51.084;16.748;2022-09-09T11:14:34;100005.67;;;24.58;51.42
72096;BME280;59968;51.084;16.748;2022-09-09T11:17:24;100005.60;;;24.58;51.24
72096;BME280;59968;51.084;16.748;2022-09-09T11:19:54;100003.98;;;24.53;52.06
72096;BME280;59968;51.084;16.748;2022-09-09T11:22:35;100008.27;;;24.39;53.13
72096;BME280;59968;51.084;16.748;2022-09-09T11:28:17;100009.15;;;24.21;53.69
72096;BME280;59968;51.084;16.748;2022-09-09T11:30:53;100004.72;;;24.11;53.43
72096;BME280;59968;51.084;16.748;2022-09-09T11:39:01;100000.35;;;24.34;54.46
72096;BME280;59968;51.084;16.748;2022-09-09T11:41:36;100002.56;;;24.38;53.61
72096;BME280;59968;51.084;16.748;2022-09-09T11:44:17;100002.56;;;24.38;53.44
72096;BME280;59968;51.084;16.748;2022-09-09T11:46:50;100000.30;;;24.39;52.65
72096;BME280;59968;51.084;16.748;2022-09-09T11:49:27;99991.59;;;24.37;51.99
72096;BME280;59968;51.084;16.748;2022-09-09T11:51:54;100005.34;;;24.47;51.41
72096;BME280;59968;51.084;16.748;2022-09-09T11:54:33;100003.41;;;24.45;51.37
72096;BME280;59968;51.084;16.748;2022-09-09T11:57:36;99996.14;;;24.46;51.89
72096;BME280;59968;51.084;16.748;2022-09-09T12:00:05;99996.17;;;24.44;53.27
72096;BME280;59968;51.084;16.748;2022-09-09T12:02:48;99996.41;;;24.38;52.94
72096;BME280;59968;51.084;16.748;2022-09-09T12:05:20;99995.53;;;24.29;52.56
72096;BME280;59968;51.084;16.748;2022-09-09T12:07:56;100001.10;;;24.25;53.47
72096;BME280;59968;51.084;16.748;2022-09-09T12:10:34;99998.58;;;24.23;53.84
72096;BME280;59968;51.084;16.748;2022-09-09T12:13:21;99999.86;;;24.22;53.74
72096;BME280;59968;51.084;16.748;2022-09-09T12:15:55;99997.23;;;24.21;53.72
72096;BME280;59968;51.084;16.748;2022-09-09T12:18:33;99991.04;;;24.20;53.87
72096;BME280;59968;51.084;16.748;2022-09-09T12:29:31;99988.27;;;24.28;53.54
72096;BME280;59968;51.084;16.748;2022-09-09T12:32:10;99994.85;;;24.36;54.13
72096;BME280;59968;51.084;16.748;2022-09-09T12:34:52;99994.16;;;24.43;53.43
72096;BME280;59968;51.084;16.748;2022-09-09T12:37:38;99988.33;;;24.58;51.94
72096;BME280;59968;51.084;16.748;2022-09-09T12:40:23;99988.63;;;24.73;51.01
72096;BME280;59968;51.084;16.748;2022-09-09T12:42:51;99994.04;;;24.87;50.78
72096;BME280;59968;51.084;16.748;2022-09-09T12:45:24;100001.84;;;24.93;50.84
72096;BME280;59968;51.084;16.748;2022-09-09T12:48:09;100001.30;;;25.00;51.23
72096;BME280;59968;51.084;16.748;2022-09-09T12:50:50;99992.14;;;25.09;50.99
72096;BME280;59968;51.084;16.748;2022-09-09T12:53:24;99981.65;;;25.14;50.94
72096;BME280;59968;51.084;16.748;2022-09-09T12:56:00;99983.48;;;25.16;50.07
72096;BME280;59968;51.084;16.748;2022-09-09T12:58:31;99982.26;;;25.18;49.37
72096;BME280;59968;51.084;16.748;2022-09-09T13:01:04;99983.11;;;25.27;49.71
72096;BME280;59968;51.084;16.748;2022-09-09T13:03:48;99983.77;;;25.38;50.20
72096;BME280;59968;51.084;16.748;2022-09-09T13:06:23;99982.74;;;25.45;50.89
72096;BME280;59968;51.084;16.748;2022-09-09T13:08:58;99982.65;;;25.50;50.13
72096;BME280;59968;51.084;16.748;2022-09-09T13:12:01;99981.81;;;25.50;48.93
72096;BME280;59968;51.084;16.748;2022-09-09T13:14:33;99979.66;;;25.51;47.45
72096;BME280;59968;51.084;16.748;2022-09-09T13:17:06;99964.63;;;25.52;47.22
72096;BME280;59968;51.084;16.748;2022-09-09T13:19:38;99955.71;;;25.51;47.20
72096;BME280;59968;51.084;16.748;2022-09-09T13:22:33;99958.74;;;25.54;47.68
72096;BME280;59968;51.084;16.748;2022-09-09T13:27:35;99969.82;;;25.58;48.64
72096;BME280;59968;51.084;16.748;2022-09-09T13:33:05;99959.64;;;25.60;48.54
72096;BME280;59968;51.084;16.748;2022-09-09T13:35:33;99960.12;;;25.62;48.25
72096;BME280;59968;51.084;16.748;2022-09-09T13:38:07;99960.02;;;25.67;48.08
72096;BME280;59968;51.084;16.748;2022-09-09T13:40:37;99953.63;;;25.71;47.84
72096;BME280;59968;51.084;16.748;2022-09-09T13:43:10;99948.77;;;25.72;47.42
72096;BME280;59968;51.084;16.748;2022-09-09T13:46:03;99944.20;;;25.75;48.28
72096;BME280;59968;51.084;16.748;2022-09-09T13:48:31;99940.21;;;25.75;47.98
72096;BME280;59968;51.084;16.748;2022-09-09T13:51:03;99936.50;;;25.74;47.66
72096;BME280;59968;51.084;16.748;2022-09-09T13:53:34;99933.22;;;25.74;47.66
72096;BME280;59968;51.084;16.748;2022-09-09T13:56:01;99930.98;;;25.72;48.68
72096;BME280;59968;51.084;16.748;2022-09-09T13:58:29;99927.08;;;25.70;48.55
72096;BME280;59968;51.084;16.748;2022-09-09T14:01:00;99928.45;;;25.68;48.16
72096;BME280;59968;51.084;16.748;2022-09-09T14:03:30;99928.49;;;25.68;47.83
72096;BME280;59968;51.084;16.748;2022-09-09T14:06:04;99929.15;;;25.70;47.04
72096;BME280;59968;51.084;16.748;2022-09-09T14:08:37;99935.86;;;25.69;47.40
72096;BME280;59968;51.084;16.748;2022-09-09T14:11:11;99933.23;;;25.66;48.28
72096;BME280;59968;51.084;16.748;2022-09-09T14:13:44;99930.59;;;25.65;48.88
72096;BME280;59968;51.084;16.748;2022-09-09T14:16:17;99937.23;;;25.64;48.54
72096;BME280;59968;51.084;16.748;2022-09-09T14:18:49;99933.92;;;25.60;49.09
72096;BME280;59968;51.084;16.748;2022-09-09T14:21:21;99934.37;;;25.61;49.22
72096;BME280;59968;51.084;16.748;2022-09-09T14:23:54;99932.50;;;25.59;49.45
72096;BME280;59968;51.084;16.748;2022-09-09T14:26:26;99935.54;;;25.57;48.37
72096;BME280;59968;51.084;16.748;2022-09-09T14:28:57;99936.10;;;25.52;48.86
72096;BME280;59968;51.084;16.748;2022-09-09T14:31:28;99938.78;;;25.48;49.20
72096;BME280;59968;51.084;16.748;2022-09-09T14:33:56;99935.76;;;25.43;49.37
72096;BME280;59968;51.084;16.748;2022-09-09T14:36:23;99932.91;;;25.40;51.21
72096;BME280;59968;51.084;16.748;2022-09-09T14:38:53;99930.86;;;25.36;51.88
72096;BME280;59968;51.084;16.748;2022-09-09T14:41:23;99929.30;;;25.30;50.19
72096;BME280;59968;51.084;16.748;2022-09-09T14:43:54;99930.52;;;25.26;50.68
72096;BME280;59968;51.084;16.748;2022-09-09T14:46:27;99928.92;;;25.21;50.36
72096;BME280;59968;51.084;16.748;2022-09-09T14:48:56;99926.23;;;25.17;50.69
72096;BME280;59968;51.084;16.748;2022-09-09T14:51:24;99925.77;;;25.14;52.32
72096;BME280;59968;51.084;16.748;2022-09-09T14:53:56;99920.28;;;25.08;52.19
72096;BME280;59968;51.084;16.748;2022-09-09T14:56:30;99920.11;;;25.04;52.81
72096;BME280;59968;51.084;16.748;2022-09-09T14:58:59;99916.33;;;24.99;51.86
72096;BME280;59968;51.084;16.748;2022-09-09T15:01:28;99912.05;;;24.94;51.77
72096;BME280;59968;51.084;16.748;2022-09-09T15:03:58;99912.75;;;24.91;53.07
72096;BME280;59968;51.084;16.748;2022-09-09T15:06:28;99911.70;;;24.84;53.35